createdAt,value
2022-11-22T00:00:35.941Z,98716.94
2022-11-22T00:03:02.630Z,98721.97
2022-11-22T00:05:29.345Z,98713.50
2022-11-22T00:07:56.141Z,98716.28
2022-11-22T00:10:22.851Z,98729.69
2022-11-22T00:12:49.738Z,98721.97
2022-11-22T00:15:16.707Z,98709.97
2022-11-22T00:17:43.380Z,98730.75
2022-11-22T00:20:13.724Z,98728.66
2022-11-22T00:22:44.545Z,98733.59
2022-11-22T00:25:12.239Z,98731.13
2022-11-22T00:27:38.995Z,98718.34
2022-11-22T00:30:06.510Z,98716.03
2022-11-22T00:32:33.299Z,98721.25
2022-11-22T00:35:00.185Z,98707.72
2022-11-22T00:37:26.813Z,98713.63
2022-11-22T00:39:53.513Z,98715.03
2022-11-22T00:42:20.290Z,98712.53
2022-11-22T00:44:47.385Z,98701.91
2022-11-22T00:47:14.033Z,98697.63
2022-11-22T00:49:40.629Z,98718.03
2022-11-22T00:52:07.229Z,98699.59
2022-11-22T00:54:33.935Z,98712.34
2022-11-22T00:57:00.560Z,98695.97
2022-11-22T00:59:27.419Z,98707.22
2022-11-22T01:01:54.390Z,98698.97
2022-11-22T01:04:21.101Z,98698.44
2022-11-22T01:06:47.811Z,98667.47
2022-11-22T01:09:20.668Z,98690.03
2022-11-22T01:11:47.348Z,98692.31
2022-11-22T01:14:14.981Z,98661.09
2022-11-22T01:16:42.377Z,98705.59
2022-11-22T01:19:09.010Z,98693.03
2022-11-22T01:21:35.644Z,98692.13
2022-11-22T01:24:02.452Z,98695.44
2022-11-22T01:26:29.065Z,98697.31
2022-11-22T01:28:55.676Z,98684.47
2022-11-22T01:31:22.391Z,98699.25
2022-11-22T01:33:49.078Z,98686.97
2022-11-22T01:36:15.736Z,98700.56
2022-11-22T01:38:42.357Z,98704.47
2022-11-22T01:41:08.939Z,98710.56
2022-11-22T01:43:35.716Z,98704.66
2022-11-22T01:46:06.009Z,98699.63
2022-11-22T01:48:51.458Z,98703.81
2022-11-22T01:51:20.803Z,98694.69
2022-11-22T01:53:47.583Z,98703.19
2022-11-22T01:56:18.010Z,98667.31
2022-11-22T01:58:49.124Z,98689.31
2022-11-22T02:01:15.883Z,98691.72
2022-11-22T02:03:47.996Z,98686.88
2022-11-22T02:06:15.405Z,98694.91
2022-11-22T02:08:57.608Z,98699.84
2022-11-22T02:11:29.631Z,98698.50
2022-11-22T02:13:59.561Z,98687.53
2022-11-22T02:16:26.302Z,98691.28
2022-11-22T02:18:53.070Z,98696.75
2022-11-22T02:21:19.754Z,98691.00
2022-11-22T02:23:52.456Z,98694.78
2022-11-22T02:26:19.138Z,98690.88
2022-11-22T02:28:45.869Z,98692.66
2022-11-22T02:31:35.507Z,98692.22
2022-11-22T02:34:02.336Z,98691.84
2022-11-22T02:36:33.468Z,98693.88
2022-11-22T02:39:01.168Z,98692.06
2022-11-22T02:41:28.308Z,98709.41
2022-11-22T02:43:55.097Z,98694.25
2022-11-22T02:46:23.680Z,98690.03
2022-11-22T02:48:50.557Z,98694.78
2022-11-22T02:51:20.031Z,98688.19
2022-11-22T02:53:48.898Z,98689.41
2022-11-22T02:56:17.921Z,98677.59
2022-11-22T02:58:45.003Z,98681.31
2022-11-22T03:01:13.064Z,98675.13
2022-11-22T03:03:39.884Z,98695.91
2022-11-22T03:06:06.534Z,98665.53
2022-11-22T03:08:33.467Z,98688.06
2022-11-22T03:11:00.396Z,98687.34
2022-11-22T03:13:27.340Z,98694.78
2022-11-22T03:15:53.954Z,98681.09
2022-11-22T03:18:20.960Z,98672.94
2022-11-22T03:20:47.651Z,98678.13
2022-11-22T03:23:14.370Z,98689.63
2022-11-22T03:25:41.365Z,98693.75
2022-11-22T03:28:08.076Z,98667.84
2022-11-22T03:30:34.894Z,98685.09
2022-11-22T03:33:01.501Z,98690.28
2022-11-22T03:35:28.187Z,98689.13
2022-11-22T03:37:54.769Z,98693.63
2022-11-22T03:40:21.400Z,98680.66
2022-11-22T03:42:48.086Z,98676.75
2022-11-22T03:45:14.946Z,98675.63
2022-11-22T03:47:41.651Z,98681.88
2022-11-22T03:50:08.724Z,98680.69
2022-11-22T03:52:35.338Z,98673.34
2022-11-22T03:55:02.417Z,98665.03
2022-11-22T03:57:29.141Z,98665.97
2022-11-22T03:59:55.922Z,98668.13
2022-11-22T04:02:22.572Z,98664.22
2022-11-22T04:04:49.192Z,98645.47
2022-11-22T04:07:15.844Z,98647.84
2022-11-22T04:09:42.481Z,98692.44
2022-11-22T04:12:09.093Z,98681.59
2022-11-22T04:15:04.694Z,98675.19
2022-11-22T04:17:48.074Z,98665.06
2022-11-22T04:20:37.645Z,98665.16
2022-11-22T04:23:07.623Z,98651.50
2022-11-22T04:25:36.637Z,98653.81
2022-11-22T04:28:04.884Z,98653.06
2022-11-22T04:30:50.476Z,98657.63
2022-11-22T04:33:17.661Z,98645.47
2022-11-22T04:35:45.286Z,98653.00
2022-11-22T04:38:12.754Z,98654.66
2022-11-22T04:40:39.725Z,98639.41
2022-11-22T04:43:25.618Z,98649.00
2022-11-22T04:45:52.816Z,98642.41
2022-11-22T04:48:19.515Z,98647.44
2022-11-22T04:51:05.281Z,98651.53
2022-11-22T04:53:32.004Z,98641.66
2022-11-22T04:55:58.929Z,98651.44
2022-11-22T04:58:25.716Z,98645.03
2022-11-22T05:00:52.731Z,98650.78
2022-11-22T05:03:19.658Z,98612.91
2022-11-22T05:05:46.580Z,98645.09
2022-11-22T05:08:13.844Z,98644.56
2022-11-22T05:10:59.778Z,98655.09
2022-11-22T05:13:38.084Z,98663.34
2022-11-22T05:16:07.121Z,98652.47
2022-11-22T05:18:34.353Z,98630.13
2022-11-22T05:21:05.912Z,98638.69
2022-11-22T05:23:51.330Z,98648.38
2022-11-22T05:26:18.105Z,98632.81
2022-11-22T05:28:44.930Z,98644.56
2022-11-22T05:31:13.865Z,98640.53
2022-11-22T05:33:43.302Z,98631.81
2022-11-22T05:36:10.693Z,98646.88
2022-11-22T05:38:38.111Z,98648.09
2022-11-22T05:41:06.867Z,98666.16
2022-11-22T05:43:33.810Z,98644.47
2022-11-22T05:46:24.828Z,98645.22
2022-11-22T05:48:53.509Z,98654.16
2022-11-22T05:51:23.081Z,98650.22
2022-11-22T05:53:49.840Z,98606.59
2022-11-22T05:56:24.325Z,98663.66
2022-11-22T05:58:51.600Z,98656.94
2022-11-22T06:01:23.431Z,98655.84
2022-11-22T06:03:50.795Z,98648.09
2022-11-22T06:06:18.040Z,98657.78
2022-11-22T06:08:47.859Z,98642.41
2022-11-22T06:11:16.406Z,98661.59
2022-11-22T06:13:44.548Z,98648.84
2022-11-22T06:16:11.695Z,98646.78
2022-11-22T06:18:38.546Z,98653.13
2022-11-22T06:21:10.401Z,98653.41
2022-11-22T06:23:37.094Z,98657.69
2022-11-22T06:26:06.940Z,98649.09
2022-11-22T06:28:35.623Z,98652.19
2022-11-22T06:31:07.598Z,98656.41
2022-11-22T06:33:34.815Z,98625.94
2022-11-22T06:36:09.363Z,98655.84
2022-11-22T06:38:36.557Z,98648.94
2022-11-22T06:41:05.620Z,98615.06
2022-11-22T06:43:33.919Z,98649.66
2022-11-22T06:46:02.208Z,98644.66
2022-11-22T06:48:34.594Z,98636.16
2022-11-22T06:51:01.946Z,98643.91
2022-11-22T06:53:46.249Z,98635.59
2022-11-22T06:56:18.102Z,98633.09
2022-11-22T06:58:45.923Z,98621.38
2022-11-22T07:01:15.536Z,98596.44
2022-11-22T07:03:42.953Z,98630.22
2022-11-22T07:06:11.163Z,98632.19
2022-11-22T07:08:38.642Z,98634.38
2022-11-22T07:11:08.950Z,98627.25
2022-11-22T07:13:36.282Z,98628.44
2022-11-22T07:16:05.176Z,98628.25
2022-11-22T07:18:32.605Z,98633.38
2022-11-22T07:21:08.011Z,98631.69
2022-11-22T07:23:39.304Z,98626.88
2022-11-22T07:26:06.418Z,98633.28
2022-11-22T07:28:33.172Z,98590.00
2022-11-22T07:31:01.403Z,98609.56
2022-11-22T07:33:28.710Z,98613.06
2022-11-22T07:35:55.552Z,98628.16
2022-11-22T07:38:22.480Z,98618.59
2022-11-22T07:40:49.478Z,98616.06
2022-11-22T07:43:16.184Z,98611.09
2022-11-22T07:45:42.831Z,98599.09
2022-11-22T07:48:09.597Z,98610.53
2022-11-22T07:50:39.326Z,98614.00
2022-11-22T07:53:06.388Z,98618.13
2022-11-22T07:55:33.039Z,98609.38
2022-11-22T07:58:00.428Z,98604.69
2022-11-22T08:00:27.997Z,98620.16
2022-11-22T08:02:55.199Z,98631.31
2022-11-22T08:05:22.024Z,98599.38
2022-11-22T08:07:50.358Z,98635.44
2022-11-22T08:10:17.706Z,98589.16
2022-11-22T08:12:45.098Z,98624.63
2022-11-22T08:15:13.286Z,98628.44
2022-11-22T08:17:40.104Z,98619.69
2022-11-22T08:20:09.309Z,98626.66
2022-11-22T08:22:39.714Z,98629.66
2022-11-22T08:25:12.478Z,98621.00
2022-11-22T08:27:44.019Z,98631.03
2022-11-22T08:30:11.628Z,98643.41
2022-11-22T08:32:38.410Z,98617.19
2022-11-22T08:35:05.578Z,98609.00
2022-11-22T08:37:32.375Z,98588.97
2022-11-22T08:39:59.105Z,98581.44
2022-11-22T08:42:25.728Z,98615.94
2022-11-22T08:44:52.398Z,98576.13
2022-11-22T08:47:19.146Z,98635.06
2022-11-22T08:49:45.776Z,98606.09
2022-11-22T08:52:12.907Z,98621.94
2022-11-22T08:54:39.798Z,98604.03
2022-11-22T08:57:06.605Z,98605.91
2022-11-22T08:59:34.036Z,98607.84
2022-11-22T09:02:01.063Z,98591.00
2022-11-22T09:04:27.838Z,98607.03
2022-11-22T09:09:41.215Z,98610.13
2022-11-22T09:12:07.960Z,98621.28
2022-11-22T09:14:34.755Z,98607.63
2022-11-22T09:17:01.494Z,98618.41
2022-11-22T09:19:28.528Z,98659.25
2022-11-22T09:21:55.396Z,98634.31
2022-11-22T09:24:22.065Z,98617.09
2022-11-22T09:26:48.858Z,98648.94
2022-11-22T09:29:16.053Z,98617.47
2022-11-22T09:31:42.886Z,98583.97
2022-11-22T09:34:09.555Z,98637.38
2022-11-22T09:36:36.426Z,98594.22
2022-11-22T09:39:03.221Z,98594.94
2022-11-22T09:41:48.458Z,98632.06
2022-11-22T09:44:31.073Z,98624.69
2022-11-22T09:47:09.877Z,98629.41
2022-11-22T09:49:48.627Z,98624.69
2022-11-22T09:52:39.909Z,98620.38
2022-11-22T09:55:24.144Z,98631.19
2022-11-22T09:58:22.108Z,98629.03
2022-11-22T10:00:52.228Z,98613.19
2022-11-22T10:03:49.034Z,98613.81
2022-11-22T10:06:27.531Z,98599.41
2022-11-22T10:09:18.326Z,98616.03
2022-11-22T10:11:50.983Z,98613.63
2022-11-22T10:14:30.565Z,98613.16
2022-11-22T10:17:20.581Z,98591.19
2022-11-22T10:20:18.051Z,98603.38
2022-11-22T10:22:45.113Z,98556.66
2022-11-22T10:25:27.642Z,98608.03
2022-11-22T10:28:05.677Z,98577.84
2022-11-22T10:30:41.599Z,98566.03
2022-11-22T10:33:45.067Z,98572.19
2022-11-22T10:36:32.371Z,98599.25
2022-11-22T10:39:08.679Z,98595.72
2022-11-22T10:41:46.521Z,98590.59
2022-11-22T10:44:48.621Z,98578.50
2022-11-22T10:47:41.533Z,98584.50
2022-11-22T10:50:20.848Z,98585.69
2022-11-22T10:53:06.350Z,98581.16
2022-11-22T10:55:33.018Z,98557.13
2022-11-22T10:58:21.424Z,98522.06
2022-11-22T11:00:57.220Z,98545.03
2022-11-22T11:03:45.926Z,98570.75
2022-11-22T11:06:56.883Z,98540.81
2022-11-22T11:10:09.569Z,98565.19
2022-11-22T11:12:27.956Z,98565.00
2022-11-22T11:15:05.172Z,98564.22
2022-11-22T11:17:37.760Z,98562.16
2022-11-22T11:20:16.361Z,98553.63
2022-11-22T11:25:40.528Z,98517.03
2022-11-22T11:28:18.991Z,98523.81
2022-11-22T11:30:58.853Z,98529.63
2022-11-22T11:33:35.018Z,98556.00
2022-11-22T11:36:13.840Z,98553.31
2022-11-22T11:38:43.494Z,98549.25
2022-11-22T11:41:19.079Z,98540.16
2022-11-22T11:43:46.604Z,98542.97
2022-11-22T11:46:20.741Z,98502.38
2022-11-22T11:48:49.689Z,98532.19
2022-11-22T11:51:22.729Z,98485.78
2022-11-22T11:54:02.425Z,98534.88
2022-11-22T11:56:33.970Z,98482.91
2022-11-22T11:59:07.334Z,98529.63
2022-11-22T12:01:38.968Z,98504.41
2022-11-22T12:04:14.820Z,98499.75
2022-11-22T12:06:41.497Z,98481.00
2022-11-22T12:09:43.492Z,98491.44
2022-11-22T12:12:35.817Z,98494.16
2022-11-22T12:15:11.601Z,98526.19
2022-11-22T12:18:04.131Z,98484.38
2022-11-22T12:20:43.738Z,98464.44
2022-11-22T12:23:24.356Z,98465.72
2022-11-22T12:25:55.725Z,98520.78
2022-11-22T12:28:25.063Z,98487.16
2022-11-22T12:31:09.353Z,98482.03
2022-11-22T12:33:44.255Z,98473.38
2022-11-22T12:36:18.065Z,98499.75
2022-11-22T12:38:47.379Z,98461.53
2022-11-22T12:41:18.230Z,98446.28
2022-11-22T12:43:57.936Z,98459.19
2022-11-22T12:46:30.872Z,98465.13
2022-11-22T12:49:05.287Z,98499.31
2022-11-22T12:51:45.609Z,98465.66
2022-11-22T12:54:20.261Z,98495.25
2022-11-22T12:56:54.765Z,98497.31
2022-11-22T12:59:47.630Z,98487.31
2022-11-22T13:02:39.697Z,98500.13
2022-11-22T13:05:13.819Z,98484.56
2022-11-22T13:07:46.744Z,98501.53
2022-11-22T13:10:22.543Z,98505.16
2022-11-22T13:12:51.148Z,98489.47
2022-11-22T13:15:33.726Z,98502.94
2022-11-22T13:18:00.948Z,98490.06
2022-11-22T13:20:42.724Z,98486.97
2022-11-22T13:23:50.189Z,98503.56
2022-11-22T13:26:30.500Z,98508.66
2022-11-22T13:28:57.863Z,98514.22
2022-11-22T13:31:24.749Z,98504.03
2022-11-22T13:34:00.350Z,98508.41
2022-11-22T13:36:29.981Z,98511.72
2022-11-22T13:39:02.602Z,98509.25
2022-11-22T13:41:42.207Z,98481.25
2022-11-22T13:44:24.079Z,98506.50
2022-11-22T13:46:50.668Z,98514.75
2022-11-22T13:49:49.115Z,98508.91
2022-11-22T13:52:15.989Z,98506.81
2022-11-22T13:54:48.499Z,98501.09
2022-11-22T13:57:37.574Z,98504.22
2022-11-22T14:00:14.038Z,98502.25
2022-11-22T14:02:47.485Z,98493.53
2022-11-22T14:05:35.451Z,98490.84
2022-11-22T14:08:06.307Z,98491.69
2022-11-22T14:10:37.574Z,98420.34
2022-11-22T14:13:09.387Z,98444.81
2022-11-22T14:15:57.847Z,98440.06
2022-11-22T14:18:40.896Z,98450.91
2022-11-22T14:21:30.528Z,98437.03
2022-11-22T14:24:06.427Z,98445.25
2022-11-22T14:26:52.051Z,98440.84
2022-11-22T14:29:50.755Z,98447.75
2022-11-22T14:32:23.302Z,98426.50
2022-11-22T14:35:18.934Z,98433.97
2022-11-22T14:37:48.650Z,98428.75
2022-11-22T14:40:36.748Z,98417.22
2022-11-22T14:43:32.513Z,98421.56
2022-11-22T14:46:24.541Z,98420.94
2022-11-22T14:49:03.395Z,98417.47
2022-11-22T14:51:32.673Z,98414.22
2022-11-22T14:54:11.278Z,98375.84
2022-11-22T14:56:37.961Z,98374.69
2022-11-22T14:59:33.535Z,98417.75
2022-11-22T15:02:41.640Z,98422.34
2022-11-22T15:09:12.130Z,98422.72
2022-11-22T15:09:23.877Z,98424.44
2022-11-22T15:11:54.978Z,98416.84
2022-11-22T15:14:54.086Z,98419.59
2022-11-22T15:57:45.529Z,98359.41
2022-11-22T16:00:43.832Z,98394.03
2022-11-22T16:03:22.865Z,98379.75
2022-11-22T16:06:05.856Z,98375.84
2022-11-22T16:08:36.793Z,98389.63
2022-11-22T16:11:04.440Z,98358.72
2022-11-22T16:13:36.496Z,98390.69
2022-11-22T16:16:13.468Z,98388.88
2022-11-22T16:18:41.679Z,98390.84
2022-11-22T16:21:11.648Z,98385.47
2022-11-22T16:23:39.885Z,98373.44
2022-11-22T16:26:25.230Z,98375.44
2022-11-22T16:28:53.589Z,98354.28
2022-11-22T16:31:26.426Z,98323.19
2022-11-22T16:33:54.112Z,98351.16
2022-11-22T16:36:23.440Z,98329.06
2022-11-22T16:38:50.207Z,98350.50
2022-11-22T16:41:28.313Z,98326.16
2022-11-22T16:44:11.719Z,98365.16
2022-11-22T16:46:39.958Z,98344.38
2022-11-22T16:49:17.579Z,98350.03
2022-11-22T16:51:44.886Z,98330.44
2022-11-22T16:54:15.493Z,98310.00
2022-11-22T16:56:42.634Z,98333.22
2022-11-22T16:59:12.703Z,98312.19
2022-11-22T17:01:42.427Z,98347.78
2022-11-22T17:04:29.460Z,98323.00
2022-11-22T17:06:56.141Z,98320.63
2022-11-22T17:09:22.782Z,98332.78
2022-11-22T17:11:49.687Z,98349.78
2022-11-22T17:14:18.329Z,98317.63
2022-11-22T17:16:46.040Z,98349.25
2022-11-22T17:22:00.935Z,98282.09
2022-11-22T17:24:27.753Z,98339.38
2022-11-22T17:26:54.538Z,98320.81
2022-11-22T17:32:13.542Z,98349.59
2022-11-22T17:34:40.257Z,98312.09
2022-11-22T17:37:15.802Z,98301.94
2022-11-22T17:39:42.429Z,98333.88
2022-11-22T17:42:09.093Z,98313.09
2022-11-22T17:44:35.764Z,98283.72
2022-11-22T17:47:02.471Z,98273.03
2022-11-22T17:49:29.358Z,98307.09
2022-11-22T17:51:56.187Z,98307.09
2022-11-22T17:54:23.535Z,98320.25
2022-11-22T17:56:50.263Z,98296.09
2022-11-22T17:59:16.960Z,98263.22
2022-11-22T18:01:43.672Z,98295.34
2022-11-22T18:04:10.754Z,98269.94
2022-11-22T18:06:37.409Z,98293.06
2022-11-22T18:09:04.457Z,98309.09
2022-11-22T18:11:31.434Z,98274.69
2022-11-22T18:13:58.157Z,98337.84
2022-11-22T18:16:28.651Z,98270.78
2022-11-22T18:18:57.803Z,98282.19
2022-11-22T18:21:26.678Z,98296.41
2022-11-22T18:23:53.314Z,98297.50
2022-11-22T18:31:54.431Z,98332.81
2022-11-22T18:34:24.891Z,98273.41
2022-11-22T18:37:00.266Z,98333.38
2022-11-22T18:39:30.019Z,98306.63
2022-11-22T18:41:56.970Z,98308.56
2022-11-22T18:44:23.619Z,98320.22
2022-11-22T18:46:50.408Z,98324.38
2022-11-22T18:49:17.113Z,98269.00
2022-11-22T18:51:43.891Z,98274.34
2022-11-22T18:54:10.717Z,98309.38
2022-11-22T18:56:40.332Z,98281.09
2022-11-22T18:59:08.371Z,98321.69
2022-11-22T19:01:35.224Z,98293.16
2022-11-22T19:04:03.207Z,98285.59
2022-11-22T19:06:30.560Z,98287.38
2022-11-22T19:08:57.949Z,98329.63
2022-11-22T19:11:25.548Z,98303.69
2022-11-22T19:13:52.459Z,98287.97
2022-11-22T19:16:22.635Z,98325.03
2022-11-22T19:18:50.132Z,98327.56
2022-11-22T19:21:19.599Z,98299.69
2022-11-22T19:23:46.988Z,98307.53
2022-11-22T19:26:15.774Z,98301.59
2022-11-22T19:28:42.966Z,98309.19
2022-11-22T19:31:13.449Z,98322.16
2022-11-22T19:33:40.252Z,98287.25
2022-11-22T19:36:14.348Z,98298.06
2022-11-22T19:38:41.845Z,98318.56
2022-11-22T19:41:14.183Z,98310.75
2022-11-22T19:43:41.124Z,98301.81
2022-11-22T19:46:07.979Z,98248.59
2022-11-22T19:48:35.883Z,98293.50
2022-11-22T19:51:11.105Z,98282.81
2022-11-22T19:53:39.006Z,98305.16
2022-11-22T19:56:06.982Z,98312.94
2022-11-22T19:58:34.175Z,98320.00
2022-11-22T20:01:08.445Z,98313.81
2022-11-22T20:03:36.149Z,98312.56
2022-11-22T20:06:05.180Z,98275.25
2022-11-22T20:08:32.220Z,98322.16
2022-11-22T20:11:03.561Z,98291.16
2022-11-22T20:13:33.421Z,98313.00
2022-11-22T20:16:24.748Z,98312.75
2022-11-22T20:18:58.567Z,98318.38
2022-11-22T20:21:26.967Z,98315.19
2022-11-22T20:23:54.326Z,98312.75
2022-11-22T20:26:22.575Z,98294.28
2022-11-22T20:28:57.903Z,98261.47
2022-11-22T20:31:25.029Z,98300.47
2022-11-22T20:33:53.876Z,98305.22
2022-11-22T20:36:20.677Z,98314.53
2022-11-22T20:38:49.004Z,98299.94
2022-11-22T20:41:17.344Z,98299.72
2022-11-22T20:43:44.808Z,98301.78
2022-11-22T20:46:18.859Z,98295.78
2022-11-22T20:48:47.547Z,98311.19
2022-11-22T20:51:17.207Z,98307.06
2022-11-22T20:53:44.446Z,98309.25
2022-11-22T20:56:12.248Z,98312.19
2022-11-22T20:58:38.960Z,98295.78
2022-11-22T21:01:07.497Z,98298.88
2022-11-22T21:03:38.437Z,98308.25
2022-11-22T21:06:06.283Z,98314.69
2022-11-22T21:08:34.235Z,98277.25
2022-11-22T21:11:20.600Z,98309.91
2022-11-22T21:13:50.469Z,98309.47
2022-11-22T21:16:24.404Z,98310.38
2022-11-22T21:18:55.491Z,98311.75
2022-11-22T21:21:23.561Z,98312.88
2022-11-22T21:23:52.309Z,98309.69
2022-11-22T21:26:19.575Z,98308.03
2022-11-22T21:28:46.484Z,98310.03
2022-11-22T21:31:13.272Z,98312.63
2022-11-22T21:33:40.005Z,98309.53
2022-11-22T21:36:07.263Z,98303.44
2022-11-22T21:38:40.552Z,98315.06
2022-11-22T21:41:38.244Z,98311.47
2022-11-22T21:43:57.057Z,98314.88
2022-11-22T21:46:25.162Z,98314.63
2022-11-22T21:48:52.030Z,98308.34
2022-11-22T21:51:18.979Z,98325.38
2022-11-22T21:53:45.628Z,98307.00
2022-11-22T21:56:12.539Z,98301.31
2022-11-22T21:58:39.217Z,98301.63
2022-11-22T22:01:10.849Z,98304.06
2022-11-22T22:03:40.521Z,98304.81
2022-11-22T22:06:07.686Z,98309.00
2022-11-22T22:08:34.511Z,98303.31
2022-11-22T22:11:04.078Z,98298.25
2022-11-22T22:13:30.997Z,98297.16
2022-11-22T22:15:59.820Z,98318.03
2022-11-22T22:18:33.051Z,98308.00
2022-11-22T22:21:03.927Z,98317.41
2022-11-22T22:23:31.078Z,98307.91
2022-11-22T22:26:02.458Z,98303.72
2022-11-22T22:28:34.291Z,98313.19
2022-11-22T22:31:04.995Z,98321.63
2022-11-22T22:33:31.925Z,98318.75
2022-11-22T22:35:59.652Z,98281.97
2022-11-22T22:38:26.718Z,98307.63
2022-11-22T22:40:57.814Z,98325.84
2022-11-22T22:43:25.636Z,98323.31
2022-11-22T22:45:52.421Z,98314.19
2022-11-22T22:48:19.645Z,98318.16
2022-11-22T22:50:46.477Z,98313.78
2022-11-22T22:53:13.434Z,98286.38
2022-11-22T22:55:40.198Z,98308.00
2022-11-22T22:58:10.392Z,98276.16
2022-11-22T23:00:38.728Z,98294.63
2022-11-22T23:03:05.402Z,98267.03
2022-11-22T23:05:32.076Z,98270.31
2022-11-22T23:07:59.156Z,98287.06
2022-11-22T23:10:25.961Z,98282.56
2022-11-22T23:12:52.563Z,98280.41
2022-11-22T23:15:33.000Z,98279.13
2022-11-22T23:18:05.887Z,98277.81
2022-11-22T23:20:32.742Z,98264.50
2022-11-22T23:22:59.374Z,98285.75
2022-11-22T23:25:26.236Z,98283.72
2022-11-22T23:27:52.873Z,98247.22
2022-11-22T23:30:19.513Z,98292.38
2022-11-22T23:32:46.221Z,98292.50
2022-11-22T23:35:12.902Z,98246.34
2022-11-22T23:37:39.600Z,98239.16
2022-11-22T23:40:07.086Z,98292.56
2022-11-22T23:42:33.771Z,98299.00
2022-11-22T23:45:00.554Z,98305.50
2022-11-22T23:47:27.148Z,98299.91
2022-11-22T23:49:53.756Z,98303.19
2022-11-22T23:52:20.545Z,98296.53
2022-11-22T23:54:47.310Z,98295.66
2022-11-22T23:57:13.965Z,98286.38
2022-11-22T23:59:40.614Z,98287.47
